createdAt,value
2023-08-08T00:02:03.240Z,81.10
2023-08-08T00:04:36.308Z,81.23
2023-08-08T00:07:09.113Z,81.48
2023-08-08T00:09:43.485Z,81.19
2023-08-08T00:12:16.780Z,81.47
2023-08-08T00:14:49.906Z,81.54
2023-08-08T00:17:22.944Z,81.56
2023-08-08T00:19:55.700Z,81.48
2023-08-08T00:22:28.535Z,81.50
2023-08-08T00:25:03.192Z,81.78
2023-08-08T00:27:36.367Z,81.68
2023-08-08T00:30:09.770Z,81.97
2023-08-08T00:32:42.585Z,81.84
2023-08-08T00:35:15.313Z,81.72
2023-08-08T00:37:48.207Z,81.63
2023-08-08T00:40:22.856Z,81.83
2023-08-08T00:42:56.045Z,81.87
2023-08-08T00:45:29.015Z,81.67
2023-08-08T00:48:01.866Z,81.92
2023-08-08T00:50:34.816Z,81.71
2023-08-08T00:53:07.938Z,82.02
2023-08-08T00:55:42.197Z,81.98
2023-08-08T00:58:15.396Z,81.94
2023-08-08T01:00:48.238Z,82.04
2023-08-08T01:03:20.991Z,82.06
2023-08-08T01:05:56.238Z,82.01
2023-08-08T01:08:35.341Z,82.08
2023-08-08T01:11:09.618Z,81.96
2023-08-08T01:13:42.785Z,81.74
2023-08-08T01:16:16.311Z,81.69
2023-08-08T01:18:49.957Z,81.27
2023-08-08T01:21:22.961Z,81.21
2023-08-08T01:23:58.621Z,80.92
2023-08-08T01:26:33.618Z,80.64
2023-08-08T01:29:06.600Z,80.56
2023-08-08T01:31:39.738Z,80.39
2023-08-08T01:34:12.804Z,80.11
2023-08-08T01:36:48.668Z,80.40
2023-08-08T01:39:27.013Z,79.97
2023-08-08T01:42:02.105Z,80.13
2023-08-08T01:44:36.224Z,79.96
2023-08-08T01:47:09.830Z,79.86
2023-08-08T01:49:42.766Z,80.05
2023-08-08T01:52:15.518Z,80.08
2023-08-08T01:54:48.440Z,80.06
2023-08-08T01:57:23.665Z,79.94
2023-08-08T01:59:56.424Z,79.98
2023-08-08T02:02:29.481Z,79.98
2023-08-08T02:05:02.335Z,79.48
2023-08-08T02:07:35.200Z,79.59
2023-08-08T02:10:08.638Z,80.12
2023-08-08T02:12:43.015Z,79.65
2023-08-08T02:15:16.007Z,80.24
2023-08-08T02:17:49.261Z,79.94
2023-08-08T02:20:22.264Z,79.74
2023-08-08T02:22:54.998Z,79.82
2023-08-08T02:25:27.857Z,79.75
2023-08-08T02:28:02.234Z,80.26
2023-08-08T02:30:34.989Z,80.15
2023-08-08T02:33:07.974Z,80.24
2023-08-08T02:35:40.783Z,80.40
2023-08-08T02:38:13.625Z,80.16
2023-08-08T02:40:46.445Z,80.40
2023-08-08T02:43:20.740Z,80.30
2023-08-08T02:45:53.677Z,80.07
2023-08-08T02:48:26.606Z,80.41
2023-08-08T02:50:59.544Z,80.34
2023-08-08T02:53:32.599Z,80.40
2023-08-08T02:56:05.534Z,80.47
2023-08-08T02:58:39.861Z,80.48
2023-08-08T03:01:14.626Z,80.16
2023-08-08T03:03:49.976Z,80.56
2023-08-08T03:06:23.052Z,79.87
2023-08-08T03:08:55.770Z,80.54
2023-08-08T03:11:28.692Z,80.50
2023-08-08T03:14:02.997Z,79.81
2023-08-08T03:16:35.795Z,80.15
2023-08-08T03:19:08.526Z,80.63
2023-08-08T03:21:41.465Z,80.32
2023-08-08T03:24:14.264Z,80.51
2023-08-08T03:26:47.283Z,80.64
2023-08-08T03:29:21.348Z,80.05
2023-08-08T03:31:54.075Z,80.15
2023-08-08T03:34:26.889Z,79.99
2023-08-08T03:36:59.704Z,80.09
2023-08-08T03:39:32.576Z,80.63
2023-08-08T03:42:08.485Z,79.89
2023-08-08T03:44:42.918Z,80.34
2023-08-08T03:47:19.727Z,80.51
2023-08-08T03:49:56.173Z,80.68
2023-08-08T03:52:29.089Z,80.11
2023-08-08T03:55:01.946Z,80.03
2023-08-08T03:57:34.817Z,80.10
2023-08-08T04:00:10.396Z,80.15
2023-08-08T04:02:43.309Z,80.67
2023-08-08T04:05:16.540Z,80.57
2023-08-08T04:07:49.448Z,80.77
2023-08-08T04:10:22.350Z,80.65
2023-08-08T04:12:55.428Z,81.30
2023-08-08T04:15:29.586Z,80.91
2023-08-08T04:18:02.410Z,80.97
2023-08-08T04:20:35.621Z,80.80
2023-08-08T04:23:08.399Z,81.00
2023-08-08T04:25:41.615Z,81.25
2023-08-08T04:28:14.511Z,81.47
2023-08-08T04:30:48.928Z,81.33
2023-08-08T04:33:21.866Z,82.07
2023-08-08T04:35:54.586Z,81.34
2023-08-08T04:38:27.885Z,81.88
2023-08-08T04:41:01.370Z,81.59
2023-08-08T04:43:34.142Z,81.97
2023-08-08T04:46:08.444Z,81.68
2023-08-08T04:48:41.433Z,82.15
2023-08-08T04:51:14.427Z,82.65
2023-08-08T04:53:47.299Z,82.51
2023-08-08T04:56:20.041Z,83.01
2023-08-08T04:58:52.941Z,83.16
2023-08-08T05:01:27.379Z,82.97
2023-08-08T05:04:00.266Z,83.11
2023-08-08T05:06:33.051Z,83.36
2023-08-08T05:09:06.054Z,84.11
2023-08-08T05:11:38.737Z,84.01
2023-08-08T05:14:11.519Z,84.03
2023-08-08T05:16:45.755Z,84.56
2023-08-08T05:19:18.851Z,84.25
2023-08-08T05:21:52.742Z,85.00
2023-08-08T05:24:25.659Z,85.72
2023-08-08T05:26:58.472Z,87.38
2023-08-08T05:29:31.384Z,88.36
2023-08-08T05:32:07.845Z,89.36
2023-08-08T05:34:40.884Z,89.90
2023-08-08T05:37:17.251Z,90.17
2023-08-08T05:39:50.727Z,90.13
2023-08-08T05:42:23.496Z,90.53
2023-08-08T05:44:56.346Z,90.33
2023-08-08T05:47:30.726Z,90.03
2023-08-08T05:50:03.810Z,90.68
2023-08-08T05:52:36.570Z,91.07
2023-08-08T05:55:09.749Z,90.83
2023-08-08T05:57:42.521Z,91.01
2023-08-08T06:00:16.485Z,90.93
2023-08-08T06:02:50.869Z,91.49
2023-08-08T06:05:24.417Z,91.33
2023-08-08T06:07:57.520Z,91.44
2023-08-08T06:10:30.373Z,91.08
2023-08-08T06:13:05.029Z,90.70
2023-08-08T06:15:38.008Z,89.84
2023-08-08T06:18:12.354Z,88.69
2023-08-08T06:20:45.876Z,88.17
2023-08-08T06:23:18.744Z,87.31
2023-08-08T06:25:51.777Z,86.71
2023-08-08T06:28:24.767Z,85.87
2023-08-08T06:30:57.628Z,85.60
2023-08-08T06:33:32.011Z,85.24
2023-08-08T06:36:05.487Z,84.82
2023-08-08T06:38:38.476Z,84.71
2023-08-08T06:41:11.446Z,83.94
2023-08-08T06:43:44.296Z,83.80
2023-08-08T06:46:17.556Z,83.52
2023-08-08T06:48:54.111Z,82.79
2023-08-08T06:51:27.165Z,82.16
2023-08-08T06:54:00.000Z,81.91
2023-08-08T06:56:32.875Z,81.85
2023-08-08T06:59:05.780Z,81.73
2023-08-08T07:01:39.001Z,82.00
2023-08-08T07:04:13.994Z,81.96
2023-08-08T07:06:46.918Z,81.54
2023-08-08T07:09:19.679Z,81.26
2023-08-08T07:11:52.683Z,80.92
2023-08-08T07:14:25.499Z,80.57
2023-08-08T07:17:00.517Z,80.58
2023-08-08T07:19:35.078Z,79.99
2023-08-08T07:22:08.137Z,80.26
2023-08-08T07:24:40.935Z,80.23
2023-08-08T07:27:13.688Z,80.55
2023-08-08T07:29:46.420Z,80.89
2023-08-08T07:32:19.339Z,80.74
2023-08-08T07:34:53.438Z,79.38
2023-08-08T07:37:26.383Z,81.18
2023-08-08T07:39:59.067Z,81.77
2023-08-08T07:42:32.084Z,81.11
2023-08-08T07:45:05.269Z,79.67
2023-08-08T07:47:38.205Z,80.71
2023-08-08T07:50:13.392Z,81.06
2023-08-08T07:52:46.370Z,80.71
2023-08-08T07:55:19.311Z,80.73
2023-08-08T07:57:52.094Z,77.69
2023-08-08T08:00:25.212Z,80.22
2023-08-08T08:02:58.195Z,81.75
2023-08-08T08:05:33.298Z,81.43
2023-08-08T08:08:06.379Z,81.76
2023-08-08T08:10:39.346Z,81.90
2023-08-08T08:13:13.136Z,81.96
2023-08-08T08:15:46.088Z,81.87
2023-08-08T08:18:19.684Z,81.95
2023-08-08T08:20:53.884Z,81.90
2023-08-08T08:23:26.577Z,82.59
2023-08-08T08:25:59.817Z,83.78
2023-08-08T08:28:32.615Z,83.45
2023-08-08T08:31:06.458Z,80.56
2023-08-08T08:33:40.675Z,80.87
2023-08-08T08:36:14.926Z,81.24
2023-08-08T08:38:48.019Z,81.29
2023-08-08T08:41:22.368Z,81.76
2023-08-08T08:43:55.971Z,81.12
2023-08-08T08:46:29.350Z,81.42
2023-08-08T08:49:02.314Z,77.46
2023-08-08T08:51:36.801Z,81.06
2023-08-08T08:54:09.647Z,79.78
2023-08-08T08:56:43.405Z,79.15
2023-08-08T08:59:16.398Z,79.17
2023-08-08T09:01:49.695Z,80.15
2023-08-08T09:04:23.582Z,78.40
2023-08-08T09:06:58.212Z,78.57
2023-08-08T09:09:33.829Z,78.51
2023-08-08T09:12:07.740Z,76.79
2023-08-08T09:14:42.856Z,78.13
2023-08-08T09:17:16.499Z,79.22
2023-08-08T09:19:51.476Z,79.62
2023-08-08T09:22:25.680Z,78.89
2023-08-08T09:24:58.712Z,79.70
2023-08-08T09:27:31.559Z,79.31
2023-08-08T09:30:05.170Z,79.17
2023-08-08T09:32:38.456Z,79.89
2023-08-08T09:35:12.840Z,80.71
2023-08-08T09:37:46.990Z,77.49
2023-08-08T09:40:19.905Z,74.04
2023-08-08T09:42:53.770Z,76.39
2023-08-08T09:45:26.733Z,78.57
2023-08-08T09:48:01.306Z,79.66
2023-08-08T09:50:36.012Z,78.25
2023-08-08T09:53:10.763Z,77.35
2023-08-08T09:55:43.849Z,78.00
2023-08-08T09:58:17.229Z,77.79
2023-08-08T10:00:51.549Z,80.47
2023-08-08T10:03:25.150Z,77.63
2023-08-08T10:05:57.916Z,78.46
2023-08-08T10:08:32.728Z,79.45
2023-08-08T10:11:07.912Z,77.95
2023-08-08T10:13:40.981Z,77.37
2023-08-08T10:16:13.987Z,76.82
2023-08-08T10:18:47.211Z,78.91
2023-08-08T10:21:20.188Z,74.67
2023-08-08T10:24:04.798Z,76.81
2023-08-08T10:26:52.384Z,78.52
2023-08-08T10:29:26.897Z,78.38
2023-08-08T10:32:01.071Z,79.41
2023-08-08T10:34:41.181Z,80.15
2023-08-08T10:37:14.336Z,78.94
2023-08-08T10:39:55.679Z,80.64
2023-08-08T10:42:29.565Z,80.46
2023-08-08T10:45:03.599Z,81.54
2023-08-08T10:47:37.639Z,80.59
2023-08-08T10:50:12.909Z,80.13
2023-08-08T10:52:58.166Z,78.50
2023-08-08T10:55:35.693Z,79.81
2023-08-08T10:58:09.707Z,77.28
2023-08-08T11:00:42.484Z,78.20
2023-08-08T11:03:15.583Z,77.60
2023-08-08T11:05:52.429Z,79.46
2023-08-08T11:08:25.266Z,75.64
2023-08-08T11:10:59.606Z,77.71
2023-08-08T11:13:32.445Z,76.73
2023-08-08T11:16:05.320Z,76.41
2023-08-08T11:18:38.091Z,75.21
2023-08-08T11:21:18.870Z,75.42
2023-08-08T11:23:51.732Z,76.80
2023-08-08T11:26:28.434Z,74.59
2023-08-08T11:29:01.714Z,75.87
2023-08-08T11:31:34.983Z,76.26
2023-08-08T11:34:07.740Z,75.75
2023-08-08T11:36:40.886Z,77.40
2023-08-08T11:39:14.046Z,79.13
2023-08-08T11:41:48.222Z,79.01
2023-08-08T11:44:21.909Z,78.46
2023-08-08T11:46:54.784Z,79.94
2023-08-08T11:49:27.545Z,80.79
2023-08-08T11:52:01.288Z,80.50
2023-08-08T11:54:34.481Z,79.38
2023-08-08T11:57:09.312Z,76.11
2023-08-08T11:59:42.736Z,77.85
2023-08-08T12:02:15.568Z,75.96
2023-08-08T12:04:48.703Z,79.71
2023-08-08T12:07:21.488Z,77.70
2023-08-08T12:09:55.050Z,78.59
2023-08-08T12:12:39.427Z,77.35
2023-08-08T12:15:16.541Z,77.23
2023-08-08T12:17:49.732Z,77.08
2023-08-08T12:20:22.491Z,75.72
2023-08-08T12:22:55.312Z,77.84
2023-08-08T12:25:28.607Z,78.54
2023-08-08T12:28:03.802Z,79.92
2023-08-08T12:30:36.529Z,78.20
2023-08-08T12:33:09.354Z,79.87
2023-08-08T12:35:42.469Z,83.85
2023-08-08T12:38:15.414Z,79.93
2023-08-08T12:40:48.175Z,79.75
2023-08-08T12:43:22.307Z,80.96
2023-08-08T12:45:55.024Z,82.63
2023-08-08T12:48:27.699Z,81.03
2023-08-08T12:51:00.481Z,79.86
2023-08-08T12:53:33.216Z,77.18
2023-08-08T12:56:06.376Z,79.29
2023-08-08T12:58:41.989Z,78.58
2023-08-08T13:01:14.696Z,79.11
2023-08-08T13:03:51.482Z,79.69
2023-08-08T13:06:28.791Z,77.43
2023-08-08T13:09:01.553Z,78.46
2023-08-08T13:11:34.332Z,80.74
2023-08-08T13:14:08.712Z,79.62
2023-08-08T13:16:41.556Z,79.68
2023-08-08T13:19:14.292Z,77.24
2023-08-08T13:21:47.097Z,79.54
2023-08-08T13:24:20.013Z,78.18
2023-08-08T13:26:52.747Z,79.57
2023-08-08T13:29:26.915Z,78.51
2023-08-08T13:32:00.067Z,76.72
2023-08-08T13:34:33.053Z,74.59
2023-08-08T13:37:06.247Z,74.65
2023-08-08T13:39:39.032Z,75.81
2023-08-08T13:42:11.792Z,75.99
2023-08-08T13:44:45.989Z,70.91
2023-08-08T13:47:18.708Z,77.42
2023-08-08T13:49:51.433Z,75.17
2023-08-08T13:52:24.118Z,75.50
2023-08-08T13:54:56.864Z,73.21
2023-08-08T13:57:29.709Z,75.93
2023-08-08T14:00:04.341Z,76.80
2023-08-08T14:02:37.260Z,77.82
2023-08-08T14:05:11.385Z,75.75
2023-08-08T14:07:44.267Z,76.66
2023-08-08T14:10:17.000Z,75.67
2023-08-08T14:12:49.831Z,75.20
2023-08-08T14:15:24.550Z,75.18
2023-08-08T14:17:57.423Z,77.23
2023-08-08T14:20:30.191Z,74.03
2023-08-08T14:23:03.102Z,76.51
2023-08-08T14:25:36.023Z,77.07
2023-08-08T14:28:08.737Z,73.96
2023-08-08T14:30:42.846Z,73.96
2023-08-08T14:33:16.007Z,77.92
2023-08-08T14:35:48.876Z,76.10
2023-08-08T14:38:25.715Z,73.87
2023-08-08T14:40:59.096Z,76.70
2023-08-08T14:43:31.903Z,74.20
2023-08-08T14:46:06.107Z,75.17
2023-08-08T14:48:38.850Z,75.50
2023-08-08T14:51:13.318Z,75.96
2023-08-08T14:53:46.154Z,75.33
2023-08-08T14:56:18.864Z,76.58
2023-08-08T14:58:51.560Z,75.03
2023-08-08T15:01:26.143Z,76.60
2023-08-08T15:03:59.791Z,75.77
2023-08-08T15:06:33.064Z,76.08
2023-08-08T15:09:05.960Z,76.14
2023-08-08T15:11:38.922Z,78.38
2023-08-08T15:14:11.819Z,77.93
2023-08-08T15:16:50.240Z,77.45
2023-08-08T15:19:23.183Z,78.20
2023-08-08T15:21:56.500Z,78.26
2023-08-08T15:24:29.503Z,80.76
2023-08-08T15:27:02.589Z,78.96
2023-08-08T15:29:35.681Z,78.66
2023-08-08T15:32:10.166Z,79.34
2023-08-08T15:34:42.996Z,78.71
2023-08-08T15:37:15.867Z,77.53
2023-08-08T15:39:51.056Z,77.17
2023-08-08T15:42:23.892Z,77.72
2023-08-08T15:44:56.638Z,77.66
2023-08-08T15:47:30.994Z,77.40
2023-08-08T15:50:04.048Z,78.98
2023-08-08T15:52:37.135Z,77.33
2023-08-08T15:55:11.219Z,77.51
2023-08-08T15:57:43.905Z,78.92
2023-08-08T16:00:17.334Z,79.12
2023-08-08T16:02:51.898Z,77.51
2023-08-08T16:05:24.680Z,78.28
2023-08-08T16:07:57.357Z,79.70
2023-08-08T16:10:30.273Z,78.26
2023-08-08T16:13:03.015Z,77.66
2023-08-08T16:15:35.894Z,77.19
2023-08-08T16:18:10.277Z,77.57
2023-08-08T16:20:43.251Z,77.89
2023-08-08T16:23:16.038Z,77.84
2023-08-08T16:25:48.898Z,78.00
2023-08-08T16:28:21.624Z,78.37
2023-08-08T16:30:54.355Z,78.12
2023-08-08T16:33:28.671Z,78.37
2023-08-08T16:36:01.774Z,79.00
2023-08-08T16:38:34.435Z,78.28
2023-08-08T16:41:07.702Z,77.03
2023-08-08T16:43:40.518Z,79.13
2023-08-08T16:46:13.418Z,78.95
2023-08-08T16:48:47.814Z,78.21
2023-08-08T16:51:20.629Z,77.29
2023-08-08T16:53:53.742Z,77.45
2023-08-08T16:56:26.622Z,77.25
2023-08-08T16:58:59.881Z,77.27
2023-08-08T17:01:32.706Z,77.06
2023-08-08T17:04:08.465Z,78.53
2023-08-08T17:06:41.305Z,77.81
2023-08-08T17:09:14.703Z,77.16
2023-08-08T17:11:47.341Z,76.98
2023-08-08T17:14:20.145Z,76.76
2023-08-08T17:16:54.484Z,76.82
2023-08-08T17:19:30.302Z,76.33
2023-08-08T17:22:03.445Z,77.02
2023-08-08T17:24:40.418Z,76.44
2023-08-08T17:27:13.861Z,78.05
2023-08-08T17:29:46.661Z,77.71
2023-08-08T17:32:19.388Z,77.84
2023-08-08T17:34:53.513Z,78.63
2023-08-08T17:37:26.277Z,78.10
2023-08-08T17:39:59.028Z,77.88
2023-08-08T17:42:31.870Z,77.72
2023-08-08T17:45:05.542Z,78.14
2023-08-08T17:47:39.585Z,77.72
2023-08-08T17:50:13.775Z,77.67
2023-08-08T17:52:46.585Z,77.77
2023-08-08T17:55:19.529Z,77.91
2023-08-08T17:57:52.275Z,77.58
2023-08-08T18:00:25.297Z,77.45
2023-08-08T18:02:58.956Z,77.23
2023-08-08T18:05:33.202Z,77.18
2023-08-08T18:08:06.488Z,77.28
2023-08-08T18:10:39.444Z,77.17
2023-08-08T18:13:12.283Z,77.35
2023-08-08T18:15:45.101Z,77.36
2023-08-08T18:18:17.809Z,77.34
2023-08-08T18:20:52.061Z,77.50
2023-08-08T18:23:24.960Z,77.53
2023-08-08T18:25:57.740Z,77.45
2023-08-08T18:28:30.487Z,77.44
2023-08-08T18:31:03.495Z,77.52
2023-08-08T18:33:36.467Z,77.47
2023-08-08T18:36:10.592Z,77.42
2023-08-08T18:38:43.878Z,77.39
2023-08-08T18:41:16.741Z,77.30
2023-08-08T18:43:49.413Z,77.32
2023-08-08T18:46:22.487Z,77.20
2023-08-08T18:48:55.478Z,77.34
2023-08-08T18:51:29.734Z,77.26
2023-08-08T18:54:02.419Z,77.57
2023-08-08T18:56:35.180Z,77.51
2023-08-08T18:59:07.885Z,77.64
2023-08-08T19:01:40.851Z,77.58
2023-08-08T19:04:14.158Z,77.86
2023-08-08T19:06:48.231Z,77.82
2023-08-08T19:09:21.144Z,77.87
2023-08-08T19:11:53.936Z,77.91
2023-08-08T19:14:27.815Z,77.94
2023-08-08T19:17:00.598Z,78.05
2023-08-08T19:19:33.559Z,78.08
2023-08-08T19:22:07.831Z,78.24
2023-08-08T19:24:40.666Z,78.37
2023-08-08T19:27:13.640Z,78.22
2023-08-08T19:29:46.595Z,78.57
2023-08-08T19:32:19.521Z,78.66
2023-08-08T19:34:53.572Z,78.61
2023-08-08T19:37:27.770Z,78.48
2023-08-08T19:40:00.581Z,78.44
2023-08-08T19:42:33.428Z,78.49
2023-08-08T19:45:06.695Z,78.76
2023-08-08T19:47:39.603Z,78.75
2023-08-08T19:50:12.344Z,78.86
2023-08-08T19:52:48.292Z,78.86
2023-08-08T19:55:21.178Z,78.99
2023-08-08T19:58:00.886Z,79.21
2023-08-08T20:00:33.605Z,79.59
2023-08-08T20:03:06.802Z,79.17
2023-08-08T20:05:39.655Z,79.72
2023-08-08T20:08:14.118Z,79.65
2023-08-08T20:10:46.884Z,79.97
2023-08-08T20:13:19.681Z,79.86
2023-08-08T20:15:52.469Z,79.99
2023-08-08T20:18:25.793Z,80.18
2023-08-08T20:20:58.885Z,80.17
2023-08-08T20:23:33.319Z,80.22
2023-08-08T20:26:06.011Z,80.36
2023-08-08T20:28:38.729Z,80.32
2023-08-08T20:31:11.614Z,80.25
2023-08-08T20:33:46.331Z,80.16
2023-08-08T20:36:19.161Z,79.89
2023-08-08T20:38:53.349Z,79.61
2023-08-08T20:41:26.090Z,80.00
2023-08-08T20:43:58.786Z,79.86
2023-08-08T20:46:31.513Z,80.02
2023-08-08T20:49:04.406Z,80.07
2023-08-08T20:51:37.623Z,80.11
2023-08-08T20:54:11.802Z,80.18
2023-08-08T20:56:46.022Z,80.12
2023-08-08T20:59:18.748Z,79.90
2023-08-08T21:01:51.693Z,80.03
2023-08-08T21:04:24.797Z,79.91
2023-08-08T21:06:57.751Z,79.89
2023-08-08T21:09:31.907Z,79.88
2023-08-08T21:12:04.809Z,80.01
2023-08-08T21:14:37.657Z,79.80
2023-08-08T21:17:10.481Z,79.77
2023-08-08T21:19:43.749Z,79.96
2023-08-08T21:22:16.608Z,79.85
2023-08-08T21:24:50.977Z,79.92
2023-08-08T21:27:24.305Z,80.03
2023-08-08T21:29:57.130Z,80.13
2023-08-08T21:32:29.934Z,80.12
2023-08-08T21:35:02.685Z,80.31
2023-08-08T21:37:35.616Z,80.24
2023-08-08T21:40:11.682Z,80.21
2023-08-08T21:42:44.489Z,80.25
2023-08-08T21:45:17.316Z,80.41
2023-08-08T21:47:50.092Z,80.50
2023-08-08T21:50:23.093Z,80.50
2023-08-08T21:52:56.230Z,80.49
2023-08-08T21:55:30.605Z,80.54
2023-08-08T21:58:03.810Z,80.34
2023-08-08T22:00:36.568Z,80.66
2023-08-08T22:03:09.516Z,80.49
2023-08-08T22:05:53.294Z,80.56
2023-08-08T22:08:26.114Z,80.39
2023-08-08T22:10:58.988Z,80.74
2023-08-08T22:13:31.965Z,80.85
2023-08-08T22:16:04.871Z,80.83
2023-08-08T22:18:37.637Z,80.84
2023-08-08T22:21:11.775Z,81.05
2023-08-08T22:23:44.694Z,81.19
2023-08-08T22:26:17.464Z,81.14
2023-08-08T22:28:50.353Z,80.96
2023-08-08T22:31:23.148Z,81.09
2023-08-08T22:33:55.896Z,81.21
2023-08-08T22:36:31.005Z,81.19
2023-08-08T22:39:04.229Z,81.44
2023-08-08T22:41:36.994Z,81.40
2023-08-08T22:44:09.880Z,81.28
2023-08-08T22:46:42.893Z,81.55
2023-08-08T22:49:15.743Z,81.38
2023-08-08T22:51:50.021Z,81.22
2023-08-08T22:54:22.803Z,81.37
2023-08-08T22:56:55.640Z,81.46
2023-08-08T22:59:28.329Z,81.59
2023-08-08T23:02:01.348Z,81.51
2023-08-08T23:04:34.965Z,81.52
2023-08-08T23:07:09.610Z,81.44
2023-08-08T23:09:42.472Z,81.63
2023-08-08T23:12:15.500Z,81.57
2023-08-08T23:14:48.290Z,81.54
2023-08-08T23:17:21.002Z,81.41
2023-08-08T23:19:53.771Z,81.48
2023-08-08T23:22:27.881Z,81.44
2023-08-08T23:25:00.614Z,81.36
2023-08-08T23:27:33.461Z,81.14
2023-08-08T23:30:06.788Z,81.10
2023-08-08T23:32:44.233Z,81.39
2023-08-08T23:35:23.938Z,81.43
2023-08-08T23:37:57.973Z,81.42
2023-08-08T23:40:30.879Z,81.53
2023-08-08T23:43:04.153Z,81.30
2023-08-08T23:45:37.018Z,81.47
2023-08-08T23:48:09.929Z,81.61
2023-08-08T23:50:43.572Z,81.04
2023-08-08T23:53:17.869Z,81.25
2023-08-08T23:55:50.638Z,81.27
2023-08-08T23:58:23.435Z,81.53
